Stations météo

réclame
Mon MeteoGroup
St.Catherine`s Point, Grande-Bretagne (3866): Température de l'air & dewpoint: 11.10.2017 19:00:00 - 17.10.2017 19:00:00 (BST)St.Catherine`s Point, Grande-Bretagne (3866): Vitesse du vent & gusts: 11.10.2017 19:00:00 - 17.10.2017 19:00:00 (BST)St.Catherine`s Point, Grande-Bretagne (3866): Direction du vent: 11.10.2017 19:00:00 - 17.10.2017 19:00:00 (BST)St.Catherine`s Point, Grande-Bretagne (3866): reduced air pressure: 11.10.2017 19:00:00 - 17.10.2017 19:00:00 (BST)St.Catherine`s Point, Grande-Bretagne (3866): Quantités de précipitations: 11.10.2017 19:00:00 - 17.10.2017 19:00:00 (BST)
Date & Time tt [°C] td [°C] ff [km/h] ff [knt] fx [km/h] fx [knt] dd ppp [hPa] rr [mm]
17.10.2017 19:00:00 11,8 7,7 16 9 - - NE 1016,7 0,0
17.10.2017 18:00:00 12,1 8,7 15 8 - - NNE 1016,8 0,0
17.10.2017 17:00:00 12,7 10,2 13 7 - - NNE 1017,3 0,0
17.10.2017 16:00:00 13,5 11,1 8 4 - - N 1018,1 1,0
17.10.2017 15:00:00 13,9 9,6 5 3 - - NNW 1019,2 0,0
17.10.2017 14:00:00 14,9 9,4 5 3 - - WNW 1019,4 0,0
17.10.2017 13:00:00 14,6 9,1 5 3 - - NNW 1020,5 0,0
17.10.2017 12:00:00 13,8 9,2 8 4 - - N 1021,0 0,0
17.10.2017 11:00:00 14,5 8,7 15 8 - - W 1020,7 0,0
17.10.2017 10:00:00 14,6 9,7 16 9 - - W 1020,9 0,0
17.10.2017 09:00:00 14,4 8,5 24 13 - - W 1020,3 0,0
17.10.2017 08:00:00 14,3 9,4 26 14 - - W 1020,2 0,0
17.10.2017 07:00:00 14,3 9,4 35 19 - - W 1020,2 0,0
17.10.2017 06:00:00 14,4 10,2 34 18 - - W 1019,7 0,0
17.10.2017 05:00:00 14,5 10,2 34 18 52 28 W 1019,6 0,0
17.10.2017 04:00:00 14,7 10,2 39 21 54 29 W 1020,0 0,0
17.10.2017 03:00:00 14,9 10,5 41 22 54 29 W 1020,2 0,0
17.10.2017 02:00:00 14,7 9,5 42 23 57 31 W 1020,2 0,0
17.10.2017 01:00:00 15,1 10,3 46 25 61 33 WSW 1020,1 0,0
17.10.2017 00:00:00 15,2 9,7 48 26 63 34 WSW 1020,0 0,0
16.10.2017 23:00:00 15,1 10,3 50 27 65 35 W 1019,9 0,0
16.10.2017 22:00:00 15,4 10,1 50 27 65 35 WSW 1019,5 0,0
16.10.2017 21:00:00 15,8 11,6 48 26 65 35 WSW 1019,2 0,0
16.10.2017 20:00:00 15,7 10,4 48 26 67 36 WSW 1018,8 0,0
16.10.2017 19:00:00 15,9 11,2 52 28 65 35 WSW 1018,1 0,0
16.10.2017 18:00:00 16,1 11,7 50 27 70 38 WSW 1017,5 0,0
16.10.2017 17:00:00 16,6 12,0 48 26 61 33 WSW 1017,2 0,0
16.10.2017 16:00:00 16,6 12,5 41 22 55 30 WSW 1016,8 0,0
16.10.2017 15:00:00 16,9 13,3 35 19 54 29 WSW 1016,6 0,0
16.10.2017 14:00:00 17,3 15,6 22 12 - - WSW 1016,1 0,0
16.10.2017 13:00:00 17,8 15,6 13 7 - - WSW 1015,9 0,0
16.10.2017 12:00:00 18,3 15,4 9 5 - - SW 1015,7 0,0
16.10.2017 11:00:00 18,1 15,4 5 3 - - ESE 1014,9 0,0
16.10.2017 10:00:00 18,9 15,1 11 6 - - S 1014,7 0,0
16.10.2017 09:00:00 17,7 15,5 22 12 - - ENE 1013,5 0,0
16.10.2017 08:00:00 17,4 15,7 21 11 - - E 1013,9 0,0
16.10.2017 07:00:00 17,3 15,8 13 7 - - NE 1014,5 0,0
16.10.2017 06:00:00 18,4 16,2 13 7 - - NE 1015,2 0,0
16.10.2017 05:00:00 17,3 15,7 15 8 - - ENE 1015,1 0,0
16.10.2017 04:00:00 16,8 15,7 15 8 - - ENE 1015,7 0,0
16.10.2017 03:00:00 16,6 14,7 5 3 - - ENE 1016,0 0,0
16.10.2017 02:00:00 17,8 15,8 5 3 - - NNW 1016,7 0,0
16.10.2017 01:00:00 17,4 15,7 5 3 - - WSW 1016,9 0,0
16.10.2017 00:00:00 17,5 15,5 5 3 - - W 1016,9 0,0
15.10.2017 23:00:00 17,8 15,3 4 2 - - ENE 1016,6 0,0
15.10.2017 22:00:00 17,1 15,3 5 3 - - ENE 1016,7 0,0
15.10.2017 21:00:00 16,1 15,2 13 7 - - NE 1016,9 0,0
15.10.2017 20:00:00 15,2 14,7 15 8 - - ENE 1017,2 0,0
15.10.2017 19:00:00 15,3 14,4 16 9 - - ENE 1017,1 0,0
15.10.2017 18:00:00 15,5 14,5 11 6 - - E 1016,9 0,0
15.10.2017 17:00:00 16,8 14,8 9 5 - - ESE 1017,2 0,0
15.10.2017 16:00:00 17,0 14,9 5 3 - - SW 1017,8 0,0
15.10.2017 15:00:00 16,5 14,1 13 7 - - SW 1018,0 0,0
15.10.2017 14:00:00 16,9 14,2 15 8 - - WSW 1018,1 0,0
15.10.2017 13:00:00 16,5 14,1 16 9 - - SW 1018,5 0,0
15.10.2017 12:00:00 16,6 13,9 21 11 - - WSW 1018,6 0,0
15.10.2017 11:00:00 16,4 14,8 15 8 - - SW 1018,6 0,0
15.10.2017 10:00:00 16,3 15,2 13 7 - - SW 1018,8 0,0
15.10.2017 09:00:00 16,1 15,3 15 8 - - WSW 1018,6 0,0
15.10.2017 08:00:00 16,0 14,8 24 13 - - W 1018,3 0,0
15.10.2017 07:00:00 16,2 15,1 22 12 - - SW 1018,3 0,0
15.10.2017 06:00:00 15,4 14,5 4 2 - - E 1018,6 0,0
15.10.2017 05:00:00 15,4 14,5 9 5 - - ENE 1018,8 0,0
15.10.2017 04:00:00 15,5 15,1 11 6 - - ENE 1019,1 0,0
15.10.2017 03:00:00 15,2 15,1 11 6 - - ENE 1019,8 0,0
15.10.2017 02:00:00 15,0 15,0 16 9 - - ENE 1020,4 0,0
15.10.2017 01:00:00 15,0 15,0 22 12 - - E 1021,0 0,0
15.10.2017 00:00:00 15,5 15,5 24 13 - - E 1021,2 0,0
14.10.2017 23:00:00 15,0 15,0 22 12 - - E 1021,7 0,0
14.10.2017 22:00:00 13,9 13,9 22 12 - - E 1022,0 0,0
14.10.2017 21:00:00 14,4 14,4 24 13 - - E 1022,6 0,0
14.10.2017 20:00:00 14,4 14,3 16 9 - - E 1023,2 0,0
14.10.2017 19:00:00 14,9 14,6 8 4 - - ESE 1023,9 0,0
14.10.2017 18:00:00 16,1 14,7 5 3 - - ESE 1024,0 0,0
14.10.2017 17:00:00 16,4 15,1 2 1 - - SSW 1024,2 0,0
14.10.2017 16:00:00 16,6 15,2 4 2 - - SW 1024,6 0,0
14.10.2017 15:00:00 17,1 15,1 5 3 - - WSW 1024,9 0,0
14.10.2017 14:00:00 17,2 15,7 9 5 - - WSW 1025,0 0,0
14.10.2017 13:00:00 17,0 15,6 9 5 - - WSW 1025,3 0,0
14.10.2017 12:00:00 16,6 15,6 13 7 - - SW 1025,5 0,0
14.10.2017 11:00:00 16,1 15,5 15 8 - - WSW 1025,7 0,0
14.10.2017 10:00:00 15,9 15,3 15 8 - - SW 1025,5 0,0
14.10.2017 09:00:00 16,2 15,6 11 6 - - WSW 1025,0 0,0
14.10.2017 08:00:00 15,9 15,3 15 8 - - WSW 1024,7 0,0
14.10.2017 07:00:00 15,7 15,1 16 9 - - WSW 1024,3 0,0
14.10.2017 06:00:00 15,8 15,2 18 10 - - WSW 1024,4 0,0
14.10.2017 05:00:00 15,7 15,1 16 9 - - WSW 1024,4 0,0
14.10.2017 04:00:00 15,7 15,1 21 11 - - WSW 1024,7 0,0
14.10.2017 03:00:00 15,8 15,1 21 11 - - WSW 1024,5 0,0
14.10.2017 02:00:00 15,8 15,1 21 11 - - WSW 1024,8 0,0
14.10.2017 01:00:00 15,7 15,0 21 11 - - WSW 1024,7 0,0
14.10.2017 00:00:00 15,8 15,1 26 14 - - WSW 1024,6 0,0
13.10.2017 23:00:00 15,9 15,0 24 13 - - WSW 1024,3 0,0
13.10.2017 22:00:00 16,0 15,1 21 11 - - WSW 1024,5 0,0
13.10.2017 21:00:00 16,1 15,0 21 11 - - WSW 1024,6 0,0
13.10.2017 20:00:00 16,0 15,2 24 13 - - WSW 1024,5 0,0
13.10.2017 19:00:00 15,9 15,1 26 14 - - W 1024,3 0,0
13.10.2017 18:00:00 16,0 15,0 29 16 - - W 1024,1 0,0
13.10.2017 17:00:00 16,0 15,1 29 16 - - W 1023,8 0,0
13.10.2017 16:00:00 16,3 15,2 34 18 - - WSW 1023,7 0,0
13.10.2017 15:00:00 16,3 15,4 29 16 - - WSW 1023,6 0,0
13.10.2017 14:00:00 16,4 15,3 35 19 - - WSW 1023,8 0,0
13.10.2017 13:00:00 16,4 15,2 29 16 - - WSW 1023,9 0,0
13.10.2017 12:00:00 16,7 15,4 28 15 - - WSW 1023,7 0,0
13.10.2017 11:00:00 16,9 15,8 28 15 - - WSW 1023,7 0,0
13.10.2017 10:00:00 16,5 15,7 26 14 - - WSW 1023,4 0,0
13.10.2017 09:00:00 16,4 15,7 26 14 - - WSW 1023,0 0,0
13.10.2017 08:00:00 16,2 15,7 26 14 - - WSW 1022,6 0,0
13.10.2017 07:00:00 16,2 15,5 35 19 - - WSW 1022,1 0,0
13.10.2017 06:00:00 16,2 15,3 26 14 - - WSW 1022,1 0,0
13.10.2017 05:00:00 16,0 15,0 24 13 - - WSW 1022,2 0,0
13.10.2017 04:00:00 15,9 14,5 26 14 46 25 WSW 1022,4 0,0
13.10.2017 03:00:00 15,4 13,9 37 20 48 26 WSW 1022,3 0,0
13.10.2017 02:00:00 15,4 14,1 26 14 - - W 1022,4 0,0
13.10.2017 01:00:00 15,5 14,2 26 14 - - WSW 1022,4 0,0
13.10.2017 00:00:00 15,5 14,1 16 9 - - WSW 1022,3 0,0
12.10.2017 23:00:00 15,3 14,3 16 9 - - WSW 1022,4 0,0
12.10.2017 22:00:00 15,3 13,7 16 9 - - WSW 1022,6 0,0
12.10.2017 21:00:00 15,2 13,1 16 9 - - WSW 1022,3 0,0
12.10.2017 20:00:00 15,2 12,6 21 11 - - WSW 1022,2 0,0
12.10.2017 19:00:00 15,2 12,1 22 12 - - WSW 1022,1 0,0
12.10.2017 18:00:00 15,4 11,8 28 15 - - WSW 1022,1 0,0
12.10.2017 17:00:00 15,6 10,8 22 12 - - WSW 1022,1 0,0
12.10.2017 16:00:00 15,5 10,5 26 14 - - WSW 1022,3 0,0
12.10.2017 15:00:00 15,6 10,2 29 16 - - WSW 1022,5 0,0
12.10.2017 14:00:00 15,9 9,7 28 15 - - WSW 1022,5 0,0
12.10.2017 13:00:00 16,0 10,5 28 15 - - WSW 1022,5 0,0
12.10.2017 12:00:00 16,1 11,2 24 13 - - W 1022,6 0,0
12.10.2017 11:00:00 15,9 11,1 24 13 - - W 1022,1 0,0
12.10.2017 10:00:00 15,1 10,8 21 11 - - W 1021,7 0,0
12.10.2017 09:00:00 14,6 10,5 21 11 - - W 1021,2 0,0
12.10.2017 08:00:00 14,1 10,8 24 13 - - W 1020,4 0,0
12.10.2017 07:00:00 14,2 11,0 24 13 - - W 1019,4 0,0
12.10.2017 06:00:00 14,0 10,8 26 14 - - W 1018,4 0,0
12.10.2017 05:00:00 13,9 10,1 28 15 - - W 1017,9 0,0
12.10.2017 04:00:00 14,2 10,6 31 17 46 25 W 1017,5 0,0
12.10.2017 03:00:00 14,0 10,4 34 18 46 25 W 1017,1 0,0
12.10.2017 02:00:00 14,1 10,6 31 17 46 25 W 1016,5 0,0
12.10.2017 01:00:00 14,1 10,0 34 18 48 26 W 1015,7 0,0
12.10.2017 00:00:00 14,2 10,5 35 19 50 27 W 1015,2 0,0
11.10.2017 23:00:00 14,4 10,1 37 20 52 28 W 1014,8 0,0
11.10.2017 22:00:00 15,2 10,7 35 19 61 33 W 1013,8 0,0
11.10.2017 21:00:00 15,9 15,0 48 26 65 35 W 1012,4 0,0
11.10.2017 20:00:00 15,7 15,2 54 29 65 35 WSW 1011,5 0,4
11.10.2017 19:00:00 16,1 14,6 48 26 61 33 WSW 1011,1 0,0

tt = Température de l'air
td = dewpoint
ff = Vitesse du vent
fx = gusts
dd = Direction du vent
ppp = reduced air pressure
rr = Quantités de précipitations

stations d'obs. à proximité